sensor_id;sensor_type;location;lat;lon;timestamp;P1;durP1;ratioP1;P2;durP2;ratioP2
76320;SDS011;65132;52.088;5.402;2023-03-01T00:01:34;7.65;;;3.08;;
76320;SDS011;65132;52.088;5.402;2023-03-01T00:04:01;8.02;;;3.47;;
76320;SDS011;65132;52.088;5.402;2023-03-01T00:06:27;7.07;;;3.40;;
76320;SDS011;65132;52.088;5.402;2023-03-01T00:08:54;8.02;;;3.05;;
76320;SDS011;65132;52.088;5.402;2023-03-01T00:13:49;8.82;;;3.67;;
76320;SDS011;65132;52.088;5.402;2023-03-01T00:16:19;7.57;;;3.80;;
76320;SDS011;65132;52.088;5.402;2023-03-01T00:18:49;5.95;;;3.22;;
76320;SDS011;65132;52.088;5.402;2023-03-01T00:21:15;6.55;;;3.60;;
76320;SDS011;65132;52.088;5.402;2023-03-01T00:23:42;7.68;;;3.53;;
76320;SDS011;65132;52.088;5.402;2023-03-01T00:26:10;7.93;;;4.13;;
76320;SDS011;65132;52.088;5.402;2023-03-01T00:28:38;7.50;;;3.67;;
76320;SDS011;65132;52.088;5.402;2023-03-01T00:31:11;7.38;;;3.70;;
76320;SDS011;65132;52.088;5.402;2023-03-01T00:33:40;6.68;;;3.13;;
76320;SDS011;65132;52.088;5.402;2023-03-01T00:36:07;8.48;;;3.45;;
76320;SDS011;65132;52.088;5.402;2023-03-01T00:38:37;7.93;;;3.63;;
76320;SDS011;65132;52.088;5.402;2023-03-01T00:41:09;6.97;;;3.67;;
76320;SDS011;65132;52.088;5.402;2023-03-01T00:43:37;9.13;;;4.07;;
76320;SDS011;65132;52.088;5.402;2023-03-01T00:46:14;7.43;;;3.63;;
76320;SDS011;65132;52.088;5.402;2023-03-01T00:48:44;7.72;;;4.32;;
76320;SDS011;65132;52.088;5.402;2023-03-01T00:51:13;8.43;;;4.45;;
76320;SDS011;65132;52.088;5.402;2023-03-01T00:53:41;10.35;;;4.30;;
76320;SDS011;65132;52.088;5.402;2023-03-01T00:56:08;8.05;;;4.10;;
76320;SDS011;65132;52.088;5.402;2023-03-01T00:58:36;8.85;;;4.25;;
76320;SDS011;65132;52.088;5.402;2023-03-01T01:01:17;8.15;;;3.88;;
76320;SDS011;65132;52.088;5.402;2023-03-01T01:03:55;7.30;;;4.15;;
76320;SDS011;65132;52.088;5.402;2023-03-01T01:06:28;8.27;;;3.90;;
76320;SDS011;65132;52.088;5.402;2023-03-01T01:09:06;7.38;;;4.10;;
76320;SDS011;65132;52.088;5.402;2023-03-01T01:11:33;8.15;;;3.88;;
76320;SDS011;65132;52.088;5.402;2023-03-01T01:14:00;8.18;;;3.83;;
76320;SDS011;65132;52.088;5.402;2023-03-01T01:16:27;9.10;;;4.38;;
76320;SDS011;65132;52.088;5.402;2023-03-01T01:18:55;7.35;;;3.92;;
76320;SDS011;65132;52.088;5.402;2023-03-01T01:21:23;7.05;;;3.33;;
76320;SDS011;65132;52.088;5.402;2023-03-01T01:23:50;8.52;;;3.97;;
76320;SDS011;65132;52.088;5.402;2023-03-01T01:26:19;8.13;;;4.10;;
76320;SDS011;65132;52.088;5.402;2023-03-01T01:28:48;8.05;;;4.05;;
76320;SDS011;65132;52.088;5.402;2023-03-01T01:31:16;7.68;;;3.85;;
76320;SDS011;65132;52.088;5.402;2023-03-01T01:33:43;7.03;;;3.80;;
76320;SDS011;65132;52.088;5.402;2023-03-01T01:36:11;9.95;;;4.78;;
76320;SDS011;65132;52.088;5.402;2023-03-01T01:38:37;7.80;;;3.78;;
76320;SDS011;65132;52.088;5.402;2023-03-01T01:41:05;8.45;;;3.85;;
76320;SDS011;65132;52.088;5.402;2023-03-01T01:43:36;8.73;;;3.85;;
76320;SDS011;65132;52.088;5.402;2023-03-01T01:46:25;8.85;;;4.30;;
76320;SDS011;65132;52.088;5.402;2023-03-01T01:48:54;8.50;;;3.72;;
76320;SDS011;65132;52.088;5.402;2023-03-01T01:51:30;9.25;;;3.95;;
76320;SDS011;65132;52.088;5.402;2023-03-01T01:54:00;7.75;;;4.05;;
76320;SDS011;65132;52.088;5.402;2023-03-01T01:56:27;8.02;;;4.13;;
76320;SDS011;65132;52.088;5.402;2023-03-01T01:58:55;10.07;;;4.20;;
76320;SDS011;65132;52.088;5.402;2023-03-01T02:01:21;8.15;;;4.32;;
76320;SDS011;65132;52.088;5.402;2023-03-01T02:03:48;9.18;;;4.00;;
76320;SDS011;65132;52.088;5.402;2023-03-01T02:11:39;8.35;;;3.75;;
76320;SDS011;65132;52.088;5.402;2023-03-01T02:14:06;9.43;;;4.22;;
76320;SDS011;65132;52.088;5.402;2023-03-01T02:16:32;8.75;;;3.90;;
76320;SDS011;65132;52.088;5.402;2023-03-01T02:19:02;10.73;;;4.57;;
76320;SDS011;65132;52.088;5.402;2023-03-01T02:24:18;9.80;;;4.22;;
76320;SDS011;65132;52.088;5.402;2023-03-01T02:26:47;7.70;;;3.45;;
76320;SDS011;65132;52.088;5.402;2023-03-01T02:31:43;8.60;;;3.80;;
76320;SDS011;65132;52.088;5.402;2023-03-01T02:34:16;9.13;;;3.75;;
76320;SDS011;65132;52.088;5.402;2023-03-01T02:37:07;7.68;;;4.28;;
76320;SDS011;65132;52.088;5.402;2023-03-01T02:39:41;10.02;;;4.47;;
76320;SDS011;65132;52.088;5.402;2023-03-01T02:42:14;10.10;;;4.38;;
76320;SDS011;65132;52.088;5.402;2023-03-01T02:44:44;8.45;;;4.40;;
76320;SDS011;65132;52.088;5.402;2023-03-01T02:47:12;10.68;;;4.47;;
76320;SDS011;65132;52.088;5.402;2023-03-01T02:49:38;10.73;;;4.80;;
76320;SDS011;65132;52.088;5.402;2023-03-01T02:57:29;9.73;;;4.30;;
76320;SDS011;65132;52.088;5.402;2023-03-01T02:59:57;10.82;;;4.60;;
76320;SDS011;65132;52.088;5.402;2023-03-01T03:02:29;9.05;;;4.97;;
76320;SDS011;65132;52.088;5.402;2023-03-01T03:04:56;9.45;;;4.20;;
76320;SDS011;65132;52.088;5.402;2023-03-01T03:07:22;10.82;;;5.15;;
76320;SDS011;65132;52.088;5.402;2023-03-01T03:09:49;14.35;;;5.45;;
76320;SDS011;65132;52.088;5.402;2023-03-01T03:12:21;11.30;;;4.63;;
76320;SDS011;65132;52.088;5.402;2023-03-01T03:14:47;11.40;;;4.78;;
76320;SDS011;65132;52.088;5.402;2023-03-01T03:17:13;10.63;;;4.63;;
76320;SDS011;65132;52.088;5.402;2023-03-01T03:19:40;12.50;;;4.68;;
76320;SDS011;65132;52.088;5.402;2023-03-01T03:22:08;9.55;;;4.78;;
76320;SDS011;65132;52.088;5.402;2023-03-01T03:24:35;13.40;;;5.10;;
76320;SDS011;65132;52.088;5.402;2023-03-01T03:27:03;9.63;;;4.78;;
76320;SDS011;65132;52.088;5.402;2023-03-01T03:29:33;10.48;;;4.50;;
76320;SDS011;65132;52.088;5.402;2023-03-01T03:31:59;9.00;;;4.68;;
76320;SDS011;65132;52.088;5.402;2023-03-01T03:34:28;8.57;;;4.57;;
76320;SDS011;65132;52.088;5.402;2023-03-01T03:36:55;9.85;;;4.15;;
76320;SDS011;65132;52.088;5.402;2023-03-01T03:39:23;10.30;;;5.05;;
76320;SDS011;65132;52.088;5.402;2023-03-01T03:41:50;10.55;;;4.28;;
76320;SDS011;65132;52.088;5.402;2023-03-01T03:44:16;9.88;;;4.72;;
76320;SDS011;65132;52.088;5.402;2023-03-01T03:46:43;11.80;;;5.18;;
76320;SDS011;65132;52.088;5.402;2023-03-01T03:49:09;13.82;;;5.05;;
76320;SDS011;65132;52.088;5.402;2023-03-01T03:51:40;10.55;;;4.30;;
76320;SDS011;65132;52.088;5.402;2023-03-01T03:54:06;9.45;;;5.00;;
76320;SDS011;65132;52.088;5.402;2023-03-01T03:56:32;8.43;;;4.55;;
76320;SDS011;65132;52.088;5.402;2023-03-01T03:59:01;11.20;;;4.60;;
76320;SDS011;65132;52.088;5.402;2023-03-01T04:01:27;12.13;;;5.10;;
76320;SDS011;65132;52.088;5.402;2023-03-01T04:03:56;9.85;;;4.63;;
76320;SDS011;65132;52.088;5.402;2023-03-01T04:06:22;11.05;;;4.43;;
76320;SDS011;65132;52.088;5.402;2023-03-01T04:08:53;10.80;;;4.55;;
76320;SDS011;65132;52.088;5.402;2023-03-01T04:11:19;11.63;;;4.93;;
76320;SDS011;65132;52.088;5.402;2023-03-01T04:13:48;8.93;;;3.92;;
76320;SDS011;65132;52.088;5.402;2023-03-01T04:16:15;10.55;;;4.82;;
76320;SDS011;65132;52.088;5.402;2023-03-01T04:18:42;11.50;;;4.88;;
76320;SDS011;65132;52.088;5.402;2023-03-01T04:21:08;10.65;;;5.10;;
76320;SDS011;65132;52.088;5.402;2023-03-01T04:23:35;10.48;;;4.93;;
76320;SDS011;65132;52.088;5.402;2023-03-01T04:26:01;10.05;;;4.78;;
76320;SDS011;65132;52.088;5.402;2023-03-01T04:28:29;10.82;;;4.75;;
76320;SDS011;65132;52.088;5.402;2023-03-01T04:36:03;9.88;;;4.15;;
76320;SDS011;65132;52.088;5.402;2023-03-01T04:38:31;9.65;;;4.60;;
76320;SDS011;65132;52.088;5.402;2023-03-01T04:40:58;10.73;;;5.07;;
76320;SDS011;65132;52.088;5.402;2023-03-01T04:43:24;11.35;;;4.63;;
76320;SDS011;65132;52.088;5.402;2023-03-01T04:45:50;9.32;;;4.50;;
76320;SDS011;65132;52.088;5.402;2023-03-01T04:48:17;9.35;;;4.30;;
76320;SDS011;65132;52.088;5.402;2023-03-01T04:50:43;10.27;;;4.55;;
76320;SDS011;65132;52.088;5.402;2023-03-01T04:53:14;10.27;;;4.50;;
76320;SDS011;65132;52.088;5.402;2023-03-01T04:55:40;9.20;;;5.15;;
76320;SDS011;65132;52.088;5.402;2023-03-01T04:58:06;13.00;;;6.05;;
76320;SDS011;65132;52.088;5.402;2023-03-01T05:00:33;10.65;;;5.25;;
76320;SDS011;65132;52.088;5.402;2023-03-01T05:03:00;13.18;;;5.10;;
76320;SDS011;65132;52.088;5.402;2023-03-01T05:05:33;10.23;;;5.13;;
76320;SDS011;65132;52.088;5.402;2023-03-01T05:08:07;12.80;;;5.35;;
76320;SDS011;65132;52.088;5.402;2023-03-01T05:10:36;11.52;;;5.20;;
76320;SDS011;65132;52.088;5.402;2023-03-01T05:13:04;11.52;;;5.50;;
76320;SDS011;65132;52.088;5.402;2023-03-01T05:15:31;11.80;;;5.20;;
76320;SDS011;65132;52.088;5.402;2023-03-01T05:17:58;12.98;;;5.43;;
76320;SDS011;65132;52.088;5.402;2023-03-01T05:20:29;10.32;;;5.10;;
76320;SDS011;65132;52.088;5.402;2023-03-01T05:22:57;12.13;;;5.22;;
76320;SDS011;65132;52.088;5.402;2023-03-01T05:25:24;14.25;;;5.70;;
76320;SDS011;65132;52.088;5.402;2023-03-01T05:27:52;13.52;;;5.93;;
76320;SDS011;65132;52.088;5.402;2023-03-01T05:30:18;13.23;;;5.72;;
76320;SDS011;65132;52.088;5.402;2023-03-01T05:32:48;10.95;;;5.55;;
76320;SDS011;65132;52.088;5.402;2023-03-01T05:35:17;11.57;;;5.32;;
76320;SDS011;65132;52.088;5.402;2023-03-01T05:37:46;13.57;;;6.35;;
76320;SDS011;65132;52.088;5.402;2023-03-01T05:40:15;11.00;;;5.38;;
76320;SDS011;65132;52.088;5.402;2023-03-01T05:42:55;13.00;;;6.47;;
76320;SDS011;65132;52.088;5.402;2023-03-01T05:45:26;11.43;;;5.28;;
76320;SDS011;65132;52.088;5.402;2023-03-01T05:47:53;13.55;;;5.97;;
76320;SDS011;65132;52.088;5.402;2023-03-01T05:50:24;11.57;;;5.90;;
76320;SDS011;65132;52.088;5.402;2023-03-01T05:55:51;12.13;;;5.90;;
76320;SDS011;65132;52.088;5.402;2023-03-01T05:58:19;13.10;;;5.47;;
76320;SDS011;65132;52.088;5.402;2023-03-01T06:00:46;13.85;;;5.88;;
76320;SDS011;65132;52.088;5.402;2023-03-01T06:03:15;11.98;;;5.95;;
76320;SDS011;65132;52.088;5.402;2023-03-01T06:05:42;12.98;;;5.50;;
76320;SDS011;65132;52.088;5.402;2023-03-01T06:08:12;13.48;;;6.47;;
76320;SDS011;65132;52.088;5.402;2023-03-01T06:10:39;12.07;;;6.05;;
76320;SDS011;65132;52.088;5.402;2023-03-01T06:13:06;13.65;;;5.57;;
76320;SDS011;65132;52.088;5.402;2023-03-01T06:15:35;14.05;;;6.65;;
76320;SDS011;65132;52.088;5.402;2023-03-01T06:18:03;12.88;;;6.05;;
76320;SDS011;65132;52.088;5.402;2023-03-01T06:20:32;12.27;;;5.97;;
76320;SDS011;65132;52.088;5.402;2023-03-01T06:23:04;15.25;;;6.53;;
76320;SDS011;65132;52.088;5.402;2023-03-01T06:25:31;17.52;;;7.60;;
76320;SDS011;65132;52.088;5.402;2023-03-01T06:27:57;11.85;;;5.65;;
76320;SDS011;65132;52.088;5.402;2023-03-01T06:30:26;13.23;;;6.20;;
76320;SDS011;65132;52.088;5.402;2023-03-01T06:32:53;14.23;;;6.03;;
76320;SDS011;65132;52.088;5.402;2023-03-01T06:35:40;14.73;;;6.88;;
76320;SDS011;65132;52.088;5.402;2023-03-01T06:38:27;15.93;;;6.18;;
76320;SDS011;65132;52.088;5.402;2023-03-01T06:41:17;13.93;;;5.82;;
76320;SDS011;65132;52.088;5.402;2023-03-01T06:44:01;14.48;;;6.00;;
76320;SDS011;65132;52.088;5.402;2023-03-01T06:46:46;14.55;;;6.13;;
76320;SDS011;65132;52.088;5.402;2023-03-01T06:49:31;11.65;;;5.53;;
76320;SDS011;65132;52.088;5.402;2023-03-01T06:52:18;12.07;;;5.35;;
76320;SDS011;65132;52.088;5.402;2023-03-01T06:55:05;14.43;;;6.00;;
76320;SDS011;65132;52.088;5.402;2023-03-01T06:57:56;19.55;;;6.63;;
76320;SDS011;65132;52.088;5.402;2023-03-01T07:00:43;14.02;;;6.07;;
76320;SDS011;65132;52.088;5.402;2023-03-01T07:03:30;13.93;;;5.97;;
76320;SDS011;65132;52.088;5.402;2023-03-01T07:06:19;10.70;;;5.65;;
76320;SDS011;65132;52.088;5.402;2023-03-01T07:09:06;12.10;;;5.72;;
76320;SDS011;65132;52.088;5.402;2023-03-01T07:11:54;16.75;;;6.40;;
76320;SDS011;65132;52.088;5.402;2023-03-01T07:14:40;12.13;;;6.10;;
76320;SDS011;65132;52.088;5.402;2023-03-01T07:17:28;13.80;;;5.95;;
76320;SDS011;65132;52.088;5.402;2023-03-01T07:20:13;15.27;;;6.40;;
76320;SDS011;65132;52.088;5.402;2023-03-01T07:22:58;12.57;;;6.28;;
76320;SDS011;65132;52.088;5.402;2023-03-01T07:25:51;12.90;;;6.05;;
76320;SDS011;65132;52.088;5.402;2023-03-01T07:28:38;11.88;;;5.50;;
76320;SDS011;65132;52.088;5.402;2023-03-01T07:31:23;13.80;;;6.55;;
76320;SDS011;65132;52.088;5.402;2023-03-01T07:34:10;14.45;;;6.03;;
76320;SDS011;65132;52.088;5.402;2023-03-01T07:36:56;14.20;;;6.35;;
76320;SDS011;65132;52.088;5.402;2023-03-01T07:39:41;10.88;;;5.57;;
76320;SDS011;65132;52.088;5.402;2023-03-01T07:42:26;13.20;;;7.15;;
76320;SDS011;65132;52.088;5.402;2023-03-01T07:45:11;14.05;;;6.05;;
76320;SDS011;65132;52.088;5.402;2023-03-01T07:47:56;11.15;;;6.30;;
76320;SDS011;65132;52.088;5.402;2023-03-01T07:50:46;12.77;;;6.65;;
76320;SDS011;65132;52.088;5.402;2023-03-01T07:53:31;15.80;;;7.88;;
76320;SDS011;65132;52.088;5.402;2023-03-01T07:56:18;15.88;;;7.45;;
76320;SDS011;65132;52.088;5.402;2023-03-01T07:59:03;13.48;;;6.57;;
76320;SDS011;65132;52.088;5.402;2023-03-01T08:01:53;14.40;;;7.10;;
76320;SDS011;65132;52.088;5.402;2023-03-01T08:04:38;14.30;;;6.40;;
76320;SDS011;65132;52.088;5.402;2023-03-01T08:07:25;14.95;;;7.05;;
76320;SDS011;65132;52.088;5.402;2023-03-01T08:10:10;15.27;;;7.05;;
76320;SDS011;65132;52.088;5.402;2023-03-01T08:12:37;15.70;;;7.25;;
76320;SDS011;65132;52.088;5.402;2023-03-01T08:15:06;14.73;;;8.02;;
76320;SDS011;65132;52.088;5.402;2023-03-01T08:17:33;13.38;;;7.25;;
76320;SDS011;65132;52.088;5.402;2023-03-01T08:20:02;15.68;;;8.18;;
76320;SDS011;65132;52.088;5.402;2023-03-01T08:22:29;13.75;;;6.93;;
76320;SDS011;65132;52.088;5.402;2023-03-01T08:24:55;17.52;;;7.47;;
76320;SDS011;65132;52.088;5.402;2023-03-01T08:27:22;15.05;;;7.53;;
76320;SDS011;65132;52.088;5.402;2023-03-01T08:29:58;14.05;;;7.60;;
76320;SDS011;65132;52.088;5.402;2023-03-01T08:32:26;11.90;;;5.63;;
76320;SDS011;65132;52.088;5.402;2023-03-01T08:34:55;12.13;;;6.57;;
76320;SDS011;65132;52.088;5.402;2023-03-01T08:37:22;11.07;;;5.85;;
76320;SDS011;65132;52.088;5.402;2023-03-01T08:39:48;12.00;;;6.13;;
76320;SDS011;65132;52.088;5.402;2023-03-01T08:42:14;11.45;;;5.97;;
76320;SDS011;65132;52.088;5.402;2023-03-01T08:44:43;12.80;;;6.13;;
76320;SDS011;65132;52.088;5.402;2023-03-01T08:47:12;12.50;;;5.25;;
76320;SDS011;65132;52.088;5.402;2023-03-01T08:49:38;11.75;;;5.60;;
76320;SDS011;65132;52.088;5.402;2023-03-01T08:52:05;12.52;;;5.93;;
76320;SDS011;65132;52.088;5.402;2023-03-01T08:54:31;12.50;;;5.50;;
76320;SDS011;65132;52.088;5.402;2023-03-01T08:57:00;10.98;;;5.35;;
76320;SDS011;65132;52.088;5.402;2023-03-01T08:59:30;9.77;;;5.47;;
76320;SDS011;65132;52.088;5.402;2023-03-01T09:01:57;12.02;;;5.55;;
76320;SDS011;65132;52.088;5.402;2023-03-01T09:04:23;10.13;;;5.70;;
76320;SDS011;65132;52.088;5.402;2023-03-01T09:06:51;11.45;;;6.00;;
76320;SDS011;65132;52.088;5.402;2023-03-01T09:09:23;13.10;;;5.10;;
76320;SDS011;65132;52.088;5.402;2023-03-01T09:11:56;10.57;;;5.80;;
76320;SDS011;65132;52.088;5.402;2023-03-01T09:14:25;10.57;;;5.78;;
76320;SDS011;65132;52.088;5.402;2023-03-01T09:16:58;9.70;;;5.35;;
76320;SDS011;65132;52.088;5.402;2023-03-01T09:19:25;10.18;;;5.45;;
76320;SDS011;65132;52.088;5.402;2023-03-01T09:21:58;10.73;;;5.90;;
76320;SDS011;65132;52.088;5.402;2023-03-01T09:24:27;12.32;;;5.57;;
76320;SDS011;65132;52.088;5.402;2023-03-01T09:26:56;9.88;;;5.40;;
76320;SDS011;65132;52.088;5.402;2023-03-01T09:29:23;10.02;;;4.82;;
76320;SDS011;65132;52.088;5.402;2023-03-01T09:31:52;8.70;;;4.82;;
76320;SDS011;65132;52.088;5.402;2023-03-01T09:34:20;9.90;;;5.05;;
76320;SDS011;65132;52.088;5.402;2023-03-01T09:36:47;9.35;;;5.05;;
76320;SDS011;65132;52.088;5.402;2023-03-01T09:39:15;7.15;;;4.13;;
76320;SDS011;65132;52.088;5.402;2023-03-01T09:42:18;7.82;;;3.90;;
76320;SDS011;65132;52.088;5.402;2023-03-01T09:44:39;7.10;;;3.60;;
76320;SDS011;65132;52.088;5.402;2023-03-01T09:47:21;5.72;;;3.50;;
76320;SDS011;65132;52.088;5.402;2023-03-01T09:50:14;9.00;;;3.65;;
76320;SDS011;65132;52.088;5.402;2023-03-01T09:55:10;7.07;;;3.33;;
76320;SDS011;65132;52.088;5.402;2023-03-01T09:57:55;9.02;;;3.28;;
76320;SDS011;65132;52.088;5.402;2023-03-01T10:03:38;6.10;;;2.88;;
76320;SDS011;65132;52.088;5.402;2023-03-01T10:06:14;6.60;;;3.10;;
76320;SDS011;65132;52.088;5.402;2023-03-01T10:09:00;7.20;;;3.35;;
76320;SDS011;65132;52.088;5.402;2023-03-01T10:11:39;5.82;;;2.72;;
76320;SDS011;65132;52.088;5.402;2023-03-01T10:16:40;7.10;;;3.03;;
76320;SDS011;65132;52.088;5.402;2023-03-01T10:19:18;7.22;;;3.20;;
76320;SDS011;65132;52.088;5.402;2023-03-01T10:21:50;5.95;;;3.53;;
76320;SDS011;65132;52.088;5.402;2023-03-01T10:24:18;6.53;;;3.38;;
76320;SDS011;65132;52.088;5.402;2023-03-01T10:26:52;6.78;;;3.25;;
76320;SDS011;65132;52.088;5.402;2023-03-01T10:29:37;6.43;;;3.25;;
76320;SDS011;65132;52.088;5.402;2023-03-01T10:32:14;6.15;;;2.72;;
76320;SDS011;65132;52.088;5.402;2023-03-01T10:34:50;4.68;;;3.00;;
76320;SDS011;65132;52.088;5.402;2023-03-01T10:37:18;4.97;;;2.90;;
76320;SDS011;65132;52.088;5.402;2023-03-01T10:39:54;4.95;;;2.65;;
76320;SDS011;65132;52.088;5.402;2023-03-01T10:42:30;5.93;;;2.78;;
76320;SDS011;65132;52.088;5.402;2023-03-01T10:48:18;5.97;;;2.13;;
76320;SDS011;65132;52.088;5.402;2023-03-01T10:53:30;5.85;;;2.10;;
76320;SDS011;65132;52.088;5.402;2023-03-01T10:56:09;4.60;;;2.20;;
76320;SDS011;65132;52.088;5.402;2023-03-01T10:58:40;4.65;;;2.20;;
76320;SDS011;65132;52.088;5.402;2023-03-01T11:04:03;4.30;;;1.95;;
76320;SDS011;65132;52.088;5.402;2023-03-01T11:06:35;4.93;;;2.30;;
76320;SDS011;65132;52.088;5.402;2023-03-01T11:09:20;4.18;;;2.38;;
76320;SDS011;65132;52.088;5.402;2023-03-01T11:11:52;5.75;;;2.35;;
76320;SDS011;65132;52.088;5.402;2023-03-01T11:14:22;4.20;;;2.22;;
76320;SDS011;65132;52.088;5.402;2023-03-01T11:17:01;5.22;;;2.10;;
76320;SDS011;65132;52.088;5.402;2023-03-01T11:19:32;3.58;;;1.80;;
76320;SDS011;65132;52.088;5.402;2023-03-01T11:24:54;3.97;;;1.90;;
76320;SDS011;65132;52.088;5.402;2023-03-01T11:27:40;3.33;;;1.52;;
76320;SDS011;65132;52.088;5.402;2023-03-01T11:30:55;4.20;;;1.95;;
76320;SDS011;65132;52.088;5.402;2023-03-01T11:42:06;5.20;;;2.33;;
76320;SDS011;65132;52.088;5.402;2023-03-01T11:44:44;4.93;;;2.13;;
76320;SDS011;65132;52.088;5.402;2023-03-01T11:47:16;5.05;;;2.13;;
76320;SDS011;65132;52.088;5.402;2023-03-01T11:49:54;4.75;;;2.42;;
76320;SDS011;65132;52.088;5.402;2023-03-01T11:52:53;5.20;;;2.40;;
76320;SDS011;65132;52.088;5.402;2023-03-01T11:55:36;6.72;;;2.33;;
76320;SDS011;65132;52.088;5.402;2023-03-01T11:58:21;4.72;;;2.42;;
76320;SDS011;65132;52.088;5.402;2023-03-01T12:09:04;6.05;;;2.63;;
76320;SDS011;65132;52.088;5.402;2023-03-01T12:11:53;5.63;;;2.65;;
76320;SDS011;65132;52.088;5.402;2023-03-01T12:22:43;4.90;;;2.65;;
76320;SDS011;65132;52.088;5.402;2023-03-01T12:29:01;4.60;;;2.50;;
76320;SDS011;65132;52.088;5.402;2023-03-01T12:31:45;4.90;;;2.53;;
76320;SDS011;65132;52.088;5.402;2023-03-01T12:37:58;5.95;;;2.47;;
76320;SDS011;65132;52.088;5.402;2023-03-01T12:47:02;4.88;;;2.33;;
76320;SDS011;65132;52.088;5.402;2023-03-01T12:55:08;4.25;;;2.45;;
76320;SDS011;65132;52.088;5.402;2023-03-01T12:57:52;5.60;;;2.40;;
76320;SDS011;65132;52.088;5.402;2023-03-01T13:00:28;4.82;;;2.75;;
76320;SDS011;65132;52.088;5.402;2023-03-01T13:06:14;4.97;;;2.85;;
76320;SDS011;65132;52.088;5.402;2023-03-01T13:09:04;5.78;;;3.00;;
76320;SDS011;65132;52.088;5.402;2023-03-01T13:11:50;5.25;;;2.67;;
76320;SDS011;65132;52.088;5.402;2023-03-01T13:16:48;5.60;;;2.88;;
76320;SDS011;65132;52.088;5.402;2023-03-01T13:19:19;4.90;;;2.55;;
76320;SDS011;65132;52.088;5.402;2023-03-01T13:21:47;4.22;;;2.65;;
76320;SDS011;65132;52.088;5.402;2023-03-01T13:24:26;5.63;;;2.58;;
76320;SDS011;65132;52.088;5.402;2023-03-01T13:32:49;4.93;;;2.47;;
76320;SDS011;65132;52.088;5.402;2023-03-01T13:37:46;4.55;;;2.50;;
76320;SDS011;65132;52.088;5.402;2023-03-01T13:42:47;5.68;;;2.58;;
76320;SDS011;65132;52.088;5.402;2023-03-01T13:48:10;3.83;;;2.28;;
76320;SDS011;65132;52.088;5.402;2023-03-01T13:53:18;4.10;;;2.42;;
76320;SDS011;65132;52.088;5.402;2023-03-01T13:55:48;7.90;;;2.50;;
76320;SDS011;65132;52.088;5.402;2023-03-01T13:58:31;3.90;;;2.40;;
76320;SDS011;65132;52.088;5.402;2023-03-01T14:01:01;4.78;;;2.97;;
76320;SDS011;65132;52.088;5.402;2023-03-01T14:03:32;5.53;;;2.85;;
76320;SDS011;65132;52.088;5.402;2023-03-01T14:06:16;5.07;;;2.90;;
76320;SDS011;65132;52.088;5.402;2023-03-01T14:08:49;4.47;;;2.70;;
76320;SDS011;65132;52.088;5.402;2023-03-01T14:11:33;4.85;;;2.25;;
76320;SDS011;65132;52.088;5.402;2023-03-01T14:19:36;4.90;;;2.60;;
76320;SDS011;65132;52.088;5.402;2023-03-01T14:24:49;4.28;;;2.72;;
76320;SDS011;65132;52.088;5.402;2023-03-01T14:27:17;4.78;;;2.50;;
76320;SDS011;65132;52.088;5.402;2023-03-01T14:29:53;4.85;;;2.58;;
76320;SDS011;65132;52.088;5.402;2023-03-01T14:32:26;4.40;;;2.50;;
76320;SDS011;65132;52.088;5.402;2023-03-01T14:35:02;4.05;;;2.28;;
76320;SDS011;65132;52.088;5.402;2023-03-01T14:37:30;5.85;;;3.50;;
76320;SDS011;65132;52.088;5.402;2023-03-01T14:40:04;4.13;;;2.08;;
76320;SDS011;65132;52.088;5.402;2023-03-01T14:42:35;4.20;;;2.42;;
76320;SDS011;65132;52.088;5.402;2023-03-01T14:45:04;5.93;;;2.75;;
76320;SDS011;65132;52.088;5.402;2023-03-01T14:47:35;4.82;;;2.53;;
76320;SDS011;65132;52.088;5.402;2023-03-01T14:53:00;5.00;;;2.97;;
76320;SDS011;65132;52.088;5.402;2023-03-01T14:55:32;4.60;;;3.05;;
76320;SDS011;65132;52.088;5.402;2023-03-01T14:58:05;5.95;;;2.90;;
76320;SDS011;65132;52.088;5.402;2023-03-01T15:00:38;5.25;;;2.80;;
76320;SDS011;65132;52.088;5.402;2023-03-01T15:03:13;4.38;;;2.63;;
76320;SDS011;65132;52.088;5.402;2023-03-01T15:05:45;5.85;;;2.78;;
76320;SDS011;65132;52.088;5.402;2023-03-01T15:08:19;4.50;;;2.30;;
76320;SDS011;65132;52.088;5.402;2023-03-01T15:13:50;5.07;;;3.03;;
76320;SDS011;65132;52.088;5.402;2023-03-01T15:16:18;5.07;;;2.78;;
76320;SDS011;65132;52.088;5.402;2023-03-01T15:18:50;4.70;;;2.75;;
76320;SDS011;65132;52.088;5.402;2023-03-01T15:21:20;4.65;;;2.80;;
76320;SDS011;65132;52.088;5.402;2023-03-01T15:23:49;4.95;;;2.80;;
76320;SDS011;65132;52.088;5.402;2023-03-01T15:28:56;4.47;;;2.58;;
76320;SDS011;65132;52.088;5.402;2023-03-01T15:31:25;5.57;;;3.95;;
76320;SDS011;65132;52.088;5.402;2023-03-01T15:34:08;4.50;;;2.45;;
76320;SDS011;65132;52.088;5.402;2023-03-01T15:36:38;7.57;;;3.05;;
76320;SDS011;65132;52.088;5.402;2023-03-01T15:39:26;4.38;;;2.60;;
76320;SDS011;65132;52.088;5.402;2023-03-01T15:42:13;4.07;;;2.40;;
76320;SDS011;65132;52.088;5.402;2023-03-01T15:45:09;4.50;;;2.83;;
76320;SDS011;65132;52.088;5.402;2023-03-01T15:47:35;5.10;;;3.05;;
76320;SDS011;65132;52.088;5.402;2023-03-01T15:50:41;5.03;;;2.70;;
76320;SDS011;65132;52.088;5.402;2023-03-01T15:53:09;3.75;;;2.38;;
76320;SDS011;65132;52.088;5.402;2023-03-01T15:55:37;4.80;;;2.55;;
76320;SDS011;65132;52.088;5.402;2023-03-01T15:58:14;5.63;;;2.70;;
76320;SDS011;65132;52.088;5.402;2023-03-01T16:00:43;5.03;;;2.50;;
76320;SDS011;65132;52.088;5.402;2023-03-01T16:03:25;4.93;;;2.40;;
76320;SDS011;65132;52.088;5.402;2023-03-01T16:05:58;5.03;;;2.58;;
76320;SDS011;65132;52.088;5.402;2023-03-01T16:08:26;4.07;;;2.20;;
76320;SDS011;65132;52.088;5.402;2023-03-01T16:10:53;5.80;;;2.78;;
76320;SDS011;65132;52.088;5.402;2023-03-01T16:13:19;7.57;;;3.22;;
76320;SDS011;65132;52.088;5.402;2023-03-01T16:15:48;4.97;;;2.63;;
76320;SDS011;65132;52.088;5.402;2023-03-01T16:18:15;4.60;;;2.53;;
76320;SDS011;65132;52.088;5.402;2023-03-01T16:20:44;4.35;;;2.67;;
76320;SDS011;65132;52.088;5.402;2023-03-01T16:23:10;6.03;;;2.83;;
76320;SDS011;65132;52.088;5.402;2023-03-01T16:25:40;5.32;;;2.53;;
76320;SDS011;65132;52.088;5.402;2023-03-01T16:28:09;4.90;;;2.85;;
76320;SDS011;65132;52.088;5.402;2023-03-01T16:30:36;6.40;;;3.13;;
76320;SDS011;65132;52.088;5.402;2023-03-01T16:33:05;4.65;;;2.63;;
76320;SDS011;65132;52.088;5.402;2023-03-01T16:35:51;5.10;;;2.72;;
76320;SDS011;65132;52.088;5.402;2023-03-01T16:38:17;5.28;;;2.92;;
76320;SDS011;65132;52.088;5.402;2023-03-01T16:40:47;5.03;;;3.00;;
76320;SDS011;65132;52.088;5.402;2023-03-01T16:43:15;5.72;;;2.75;;
76320;SDS011;65132;52.088;5.402;2023-03-01T16:45:41;5.32;;;3.05;;
76320;SDS011;65132;52.088;5.402;2023-03-01T16:48:08;6.72;;;2.88;;
76320;SDS011;65132;52.088;5.402;2023-03-01T16:50:34;4.30;;;2.55;;
76320;SDS011;65132;52.088;5.402;2023-03-01T16:53:00;7.60;;;2.67;;
76320;SDS011;65132;52.088;5.402;2023-03-01T16:55:27;6.10;;;2.95;;
76320;SDS011;65132;52.088;5.402;2023-03-01T16:57:55;6.95;;;3.05;;
76320;SDS011;65132;52.088;5.402;2023-03-01T17:00:22;6.03;;;2.75;;
76320;SDS011;65132;52.088;5.402;2023-03-01T17:02:52;6.53;;;2.67;;
76320;SDS011;65132;52.088;5.402;2023-03-01T17:05:21;6.47;;;2.83;;
76320;SDS011;65132;52.088;5.402;2023-03-01T17:07:50;5.97;;;2.85;;
76320;SDS011;65132;52.088;5.402;2023-03-01T17:10:21;8.05;;;3.13;;
76320;SDS011;65132;52.088;5.402;2023-03-01T17:12:48;5.53;;;2.47;;
76320;SDS011;65132;52.088;5.402;2023-03-01T17:15:14;6.80;;;2.60;;
76320;SDS011;65132;52.088;5.402;2023-03-01T17:17:44;6.50;;;2.60;;
76320;SDS011;65132;52.088;5.402;2023-03-01T17:20:15;7.90;;;2.95;;
76320;SDS011;65132;52.088;5.402;2023-03-01T17:22:44;6.78;;;3.13;;
76320;SDS011;65132;52.088;5.402;2023-03-01T17:25:12;9.70;;;2.85;;